Time;durP1;ratioP1;P1;durP2;ratioP2;P2;SDS_P1;SDS_P2;PMS_P1;PMS_P2;Temp;Humidity;BMP_temperature;BMP_pressure;BME280_temperature;BME280_humidity;BME280_pressure;Samples;Min_cycle;Max_cycle;Signal;HPM_P1;HPM_P2
2024/01/30 00:00:10;;;;;;;15.85;12.93;;;;;;;;;;511079;29;1242;-72
2024/01/30 00:00:25;;;;;;;14.13;12.37;;;;;;;;;;511347;29;785;-71
2024/01/30 00:00:41;;;;;;;14.52;12.10;;;;;;;;;;509395;29;1181;-71
2024/01/30 00:00:57;;;;;;;15.47;12.10;;;;;;;;;;510793;28;1257;-72
2024/01/30 00:01:13;;;;;;;15.35;12.27;;;;;;;;;;510990;29;1330;-72
2024/01/30 00:01:28;;;;;;;14.23;12.13;;;;;;;;;;512644;28;1748;-72
2024/01/30 00:01:43;;;;;;;13.80;11.97;;;;;;;;;;512687;28;1192;-72
2024/01/30 00:01:59;;;;;;;14.52;12.18;;;;;;;;;;510457;28;1424;-71
2024/01/30 00:02:15;;;;;;;14.97;12.07;;;;;;;;;;510995;29;1408;-72
2024/01/30 00:02:32;;;;;;;14.52;11.73;;;;;;;;;;510866;29;1420;-71
2024/01/30 00:02:47;;;;;;;14.40;11.85;;;;;;;;;;507415;29;1395;-71
2024/01/30 00:03:03;;;;;;;15.60;12.57;;;;;;;;;;511099;28;1156;-71
2024/01/30 00:03:18;;;;;;;15.55;12.45;;;;;;;;;;511031;28;1054;-72
2024/01/30 00:03:34;;;;;;;13.60;11.53;;;;;;;;;;511559;28;990;-72
2024/01/30 00:03:50;;;;;;;14.07;11.90;;;;;;;;;;513009;28;1093;-71
2024/01/30 00:04:06;;;;;;;15.23;12.73;;;;;;;;;;513909;28;1345;-72
2024/01/30 00:04:21;;;;;;;14.93;12.67;;;;;;;;;;517206;28;1343;-71
2024/01/30 00:04:37;;;;;;;14.52;12.20;;;;;;;;;;517252;28;943;-72
2024/01/30 00:04:52;;;;;;;14.60;12.20;;;;;;;;;;517149;28;1025;-72
2024/01/30 00:05:07;;;;;;;15.20;12.17;;;;;;;;;;517268;28;882;-71
2024/01/30 00:05:22;;;;;;;14.80;11.80;;;;;;;;;;516799;28;1190;-72
2024/01/30 00:05:38;;;;;;;14.50;11.50;;;;;;;;;;517082;28;1086;-71
2024/01/30 00:05:53;;;;;;;15.17;11.53;;;;;;;;;;516956;28;1037;-72
2024/01/30 00:06:08;;;;;;;15.50;11.95;;;;;;;;;;513907;28;1974;-72
2024/01/30 00:06:24;;;;;;;15.20;12.17;;;;;;;;;;514436;28;1264;-72
2024/01/30 00:06:39;;;;;;;14.63;11.93;;;;;;;;;;516648;28;1247;-71
2024/01/30 00:06:55;;;;;;;15.98;12.25;;;;;;;;;;516359;28;1066;-71
2024/01/30 00:07:10;;;;;;;16.00;12.47;;;;;;;;;;515136;28;1245;-72
2024/01/30 00:07:25;;;;;;;14.63;11.95;;;;;;;;;;515264;28;950;-71
2024/01/30 00:07:40;;;;;;;14.93;11.97;;;;;;;;;;514762;28;1286;-71
2024/01/30 00:07:56;;;;;;;14.17;12.07;;;;;;;;;;513200;28;1513;-71
2024/01/30 00:08:11;;;;;;;14.07;12.00;;;;;;;;;;512944;28;1220;-72
2024/01/30 00:08:26;;;;;;;14.23;11.85;;;;;;;;;;515113;28;1196;-72
2024/01/30 00:08:42;;;;;;;13.77;11.70;;;;;;;;;;515169;28;1005;-71
2024/01/30 00:08:59;;;;;;;14.13;11.93;;;;;;;;;;515196;28;1393;-71
2024/01/30 00:09:15;;;;;;;14.73;12.20;;;;;;;;;;516827;28;1987;-71
2024/01/30 00:09:30;;;;;;;15.65;11.98;;;;;;;;;;517213;28;1398;-72
2024/01/30 00:09:49;;;;;;;14.80;11.60;;;;;;;;;;516866;28;1112;-72
2024/01/30 00:10:06;;;;;;;15.15;11.95;;;;;;;;;;515124;28;1148;-72
2024/01/30 00:10:21;;;;;;;15.75;12.23;;;;;;;;;;515225;28;804;-71
2024/01/30 00:10:36;;;;;;;14.93;11.93;;;;;;;;;;512986;28;1222;-71
2024/01/30 00:10:51;;;;;;;14.60;11.80;;;;;;;;;;513613;28;1522;-72
2024/01/30 00:11:07;;;;;;;13.83;11.80;;;;;;;;;;513186;28;1034;-71
2024/01/30 00:11:25;;;;;;;13.05;11.57;;;;;;;;;;513819;28;1041;-71
2024/01/30 00:11:41;;;;;;;15.80;11.73;;;;;;;;;;512910;28;1460;-71
2024/01/30 00:11:56;;;;;;;15.00;11.90;;;;;;;;;;512230;28;1141;-72
2024/01/30 00:12:12;;;;;;;14.05;12.05;;;;;;;;;;513132;28;808;-71
2024/01/30 00:12:27;;;;;;;13.32;11.90;;;;;;;;;;512921;28;1232;-71
2024/01/30 00:12:42;;;;;;;14.00;11.83;;;;;;;;;;513762;28;1120;-71
2024/01/30 00:12:57;;;;;;;15.27;12.10;;;;;;;;;;512816;28;1869;-71
2024/01/30 00:13:14;;;;;;;14.83;12.33;;;;;;;;;;514864;28;1363;-71
2024/01/30 00:13:29;;;;;;;14.50;12.05;;;;;;;;;;511001;28;1356;-72
2024/01/30 00:13:45;;;;;;;15.27;11.70;;;;;;;;;;510506;28;1584;-71
2024/01/30 00:14:00;;;;;;;15.43;11.82;;;;;;;;;;511910;28;1147;-71
2024/01/30 00:14:15;;;;;;;14.70;11.93;;;;;;;;;;510928;28;1197;-71
2024/01/30 00:14:30;;;;;;;14.77;12.23;;;;;;;;;;508973;29;1336;-71
2024/01/30 00:14:46;;;;;;;14.87;11.93;;;;;;;;;;510959;28;1048;-71
2024/01/30 00:15:01;;;;;;;14.93;11.68;;;;;;;;;;513183;28;1074;-72
2024/01/30 00:15:16;;;;;;;14.63;11.97;;;;;;;;;;511799;28;773;-71
2024/01/30 00:15:32;;;;;;;14.55;11.73;;;;;;;;;;513101;28;1437;-72
2024/01/30 00:15:48;;;;;;;14.47;11.70;;;;;;;;;;513058;28;1200;-71
2024/01/30 00:16:04;;;;;;;14.50;11.98;;;;;;;;;;515299;28;1094;-71
2024/01/30 00:16:26;;;;;;;15.20;12.13;;;;;;;;;;514291;28;1229;-71
2024/01/30 00:16:41;;;;;;;15.70;12.25;;;;;;;;;;513023;28;1374;-71
2024/01/30 00:16:57;;;;;;;15.30;12.20;;;;;;;;;;510331;28;1507;-71
2024/01/30 00:17:12;;;;;;;14.67;12.27;;;;;;;;;;509097;29;1261;-72
2024/01/30 00:17:27;;;;;;;14.43;12.17;;;;;;;;;;510257;29;1415;-72
2024/01/30 00:17:43;;;;;;;14.50;12.20;;;;;;;;;;512069;28;1272;-72
2024/01/30 00:17:58;;;;;;;14.68;12.20;;;;;;;;;;514432;28;1159;-72
2024/01/30 00:18:13;;;;;;;14.07;12.00;;;;;;;;;;513025;28;1246;-72
2024/01/30 00:18:28;;;;;;;14.10;11.77;;;;;;;;;;513123;28;1316;-72
2024/01/30 00:18:44;;;;;;;14.20;11.50;;;;;;;;;;510947;28;1263;-72
2024/01/30 00:19:01;;;;;;;12.40;11.03;;;;;;;;;;510914;28;1046;-72
2024/01/30 00:19:17;;;;;;;12.57;11.15;;;;;;;;;;513244;28;800;-72
2024/01/30 00:19:32;;;;;;;13.87;11.67;;;;;;;;;;513353;28;982;-72
2024/01/30 00:19:48;;;;;;;14.68;12.18;;;;;;;;;;512705;28;1085;-72
2024/01/30 00:20:07;;;;;;;15.10;12.47;;;;;;;;;;513611;28;1240;-72
2024/01/30 00:20:22;;;;;;;14.90;12.05;;;;;;;;;;514287;28;1778;-72
2024/01/30 00:20:37;;;;;;;14.73;12.00;;;;;;;;;;514766;28;1383;-72
2024/01/30 00:20:53;;;;;;;15.25;12.40;;;;;;;;;;515826;28;1171;-72
2024/01/30 00:21:10;;;;;;;15.98;12.50;;;;;;;;;;515114;28;1189;-72
2024/01/30 00:21:25;;;;;;;15.55;12.52;;;;;;;;;;514890;28;1262;-72
2024/01/30 00:21:41;;;;;;;15.20;12.35;;;;;;;;;;517063;28;1424;-72
2024/01/30 00:21:56;;;;;;;14.57;12.17;;;;;;;;;;515839;28;1445;-72
2024/01/30 00:22:11;;;;;;;14.83;12.70;;;;;;;;;;515002;28;1200;-72
2024/01/30 00:22:27;;;;;;;15.93;12.98;;;;;;;;;;510741;29;1351;-72
2024/01/30 00:22:42;;;;;;;15.87;12.40;;;;;;;;;;512753;28;1218;-72
2024/01/30 00:22:57;;;;;;;15.37;12.43;;;;;;;;;;513047;28;1065;-72
2024/01/30 00:23:13;;;;;;;14.32;12.60;;;;;;;;;;512935;28;1295;-72
2024/01/30 00:23:28;;;;;;;14.90;12.50;;;;;;;;;;512988;28;1274;-72
2024/01/30 00:23:43;;;;;;;15.17;12.57;;;;;;;;;;512726;28;1077;-72
2024/01/30 00:23:59;;;;;;;15.10;12.43;;;;;;;;;;511884;28;1817;-71
2024/01/30 00:24:14;;;;;;;15.13;12.23;;;;;;;;;;514310;28;1017;-72
2024/01/30 00:24:29;;;;;;;14.88;12.32;;;;;;;;;;515461;28;1072;-72
2024/01/30 00:24:45;;;;;;;14.93;12.10;;;;;;;;;;515116;28;1049;-72
2024/01/30 00:25:00;;;;;;;13.63;11.73;;;;;;;;;;516893;28;1162;-72
2024/01/30 00:25:15;;;;;;;14.38;12.13;;;;;;;;;;517037;28;1192;-72
2024/01/30 00:25:31;;;;;;;15.77;12.80;;;;;;;;;;519185;28;1453;-72
2024/01/30 00:25:46;;;;;;;14.50;12.53;;;;;;;;;;518535;28;1410;-72
2024/01/30 00:26:01;;;;;;;14.68;12.32;;;;;;;;;;515233;28;1235;-72
2024/01/30 00:26:16;;;;;;;14.30;12.07;;;;;;;;;;514791;28;1118;-72
2024/01/30 00:26:32;;;;;;;14.65;12.27;;;;;;;;;;514950;28;1069;-71
2024/01/30 00:26:49;;;;;;;15.03;12.57;;;;;;;;;;514209;28;1103;-72
2024/01/30 00:27:04;;;;;;;13.95;12.38;;;;;;;;;;512313;28;1037;-72
2024/01/30 00:27:20;;;;;;;14.70;12.73;;;;;;;;;;511477;28;1139;-72
2024/01/30 00:27:35;;;;;;;14.93;12.60;;;;;;;;;;513347;28;1317;-72
2024/01/30 00:27:51;;;;;;;15.30;12.65;;;;;;;;;;511328;28;1195;-72
2024/01/30 00:28:06;;;;;;;15.18;12.60;;;;;;;;;;511481;28;1366;-72
2024/01/30 00:28:21;;;;;;;14.97;12.30;;;;;;;;;;510815;28;983;-72
2024/01/30 00:28:38;;;;;;;16.23;12.50;;;;;;;;;;510981;28;1236;-72
2024/01/30 00:28:53;;;;;;;16.38;12.98;;;;;;;;;;510613;28;1366;-72
2024/01/30 00:29:08;;;;;;;15.63;13.20;;;;;;;;;;513268;28;1321;-72
2024/01/30 00:29:25;;;;;;;14.93;12.63;;;;;;;;;;512845;28;1891;-72
2024/01/30 00:29:40;;;;;;;15.02;12.18;;;;;;;;;;514984;28;898;-72
2024/01/30 00:29:56;;;;;;;15.07;12.53;;;;;;;;;;514477;28;1362;-72
2024/01/30 00:30:12;;;;;;;16.00;12.80;;;;;;;;;;514754;28;1255;-72
2024/01/30 00:30:27;;;;;;;16.53;12.67;;;;;;;;;;512572;28;1557;-72
2024/01/30 00:30:42;;;;;;;14.80;12.40;;;;;;;;;;510881;28;1203;-72
2024/01/30 00:30:57;;;;;;;14.33;12.23;;;;;;;;;;510904;28;1268;-72
2024/01/30 00:31:13;;;;;;;15.30;12.60;;;;;;;;;;510907;29;1219;-72
2024/01/30 00:31:29;;;;;;;15.07;12.68;;;;;;;;;;511349;29;859;-71
2024/01/30 00:31:45;;;;;;;14.45;12.55;;;;;;;;;;508635;29;1837;-72
2024/01/30 00:32:00;;;;;;;15.10;12.25;;;;;;;;;;509861;28;1228;-72
2024/01/30 00:32:16;;;;;;;15.33;11.83;;;;;;;;;;511137;28;1259;-71
2024/01/30 00:32:31;;;;;;;14.77;11.90;;;;;;;;;;513110;28;1238;-71
2024/01/30 00:32:46;;;;;;;14.30;12.30;;;;;;;;;;512725;28;1246;-72
2024/01/30 00:33:02;;;;;;;14.87;12.50;;;;;;;;;;513072;28;1257;-71
2024/01/30 00:33:17;;;;;;;14.85;12.75;;;;;;;;;;512885;28;1366;-71
2024/01/30 00:33:32;;;;;;;14.70;12.87;;;;;;;;;;513215;28;1446;-71
2024/01/30 00:33:47;;;;;;;14.87;12.97;;;;;;;;;;512723;28;1178;-72
2024/01/30 00:34:03;;;;;;;15.55;13.05;;;;;;;;;;515150;28;1240;-71
2024/01/30 00:34:20;;;;;;;14.33;12.17;;;;;;;;;;514976;28;1085;-72
2024/01/30 00:34:35;;;;;;;14.18;12.38;;;;;;;;;;514946;28;1281;-71
2024/01/30 00:34:51;;;;;;;15.83;13.27;;;;;;;;;;514869;28;1172;-72
2024/01/30 00:35:09;;;;;;;14.88;13.20;;;;;;;;;;515213;28;855;-72
2024/01/30 00:35:25;;;;;;;14.25;12.73;;;;;;;;;;515100;28;895;-72
2024/01/30 00:35:40;;;;;;;15.20;12.65;;;;;;;;;;515761;28;1256;-72
2024/01/30 00:35:56;;;;;;;15.27;12.50;;;;;;;;;;517142;28;1029;-72
2024/01/30 00:36:11;;;;;;;14.88;12.55;;;;;;;;;;517174;28;791;-72
2024/01/30 00:36:29;;;;;;;14.77;12.90;;;;;;;;;;515406;28;1232;-72
2024/01/30 00:36:44;;;;;;;14.55;12.50;;;;;;;;;;517074;28;1052;-72
2024/01/30 00:37:00;;;;;;;13.63;11.80;;;;;;;;;;514375;28;1418;-72
2024/01/30 00:37:15;;;;;;;13.43;11.57;;;;;;;;;;512075;28;1700;-72
2024/01/30 00:37:31;;;;;;;15.47;12.10;;;;;;;;;;512171;28;1168;-71
2024/01/30 00:37:46;;;;;;;16.75;12.23;;;;;;;;;;511730;28;979;-71
2024/01/30 00:38:02;;;;;;;15.60;12.18;;;;;;;;;;515204;28;1299;-72
2024/01/30 00:38:17;;;;;;;14.93;12.10;;;;;;;;;;514723;28;1282;-72
2024/01/30 00:38:33;;;;;;;15.00;12.03;;;;;;;;;;514920;28;1348;-72
2024/01/30 00:38:48;;;;;;;14.23;11.85;;;;;;;;;;514104;28;1298;-72
2024/01/30 00:39:07;;;;;;;14.63;11.93;;;;;;;;;;513104;28;1306;-72
2024/01/30 00:39:22;;;;;;;13.45;11.70;;;;;;;;;;513719;28;804;-72
2024/01/30 00:39:37;;;;;;;13.30;11.77;;;;;;;;;;515111;28;1215;-72
2024/01/30 00:39:52;;;;;;;14.33;12.33;;;;;;;;;;512507;28;1279;-72
2024/01/30 00:40:10;;;;;;;14.80;12.38;;;;;;;;;;512920;28;1221;-71
2024/01/30 00:40:26;;;;;;;13.60;11.63;;;;;;;;;;512997;28;1364;-72
2024/01/30 00:40:41;;;;;;;14.02;11.40;;;;;;;;;;512844;28;1427;-72
2024/01/30 00:40:56;;;;;;;14.63;11.87;;;;;;;;;;510686;28;1297;-72
2024/01/30 00:41:11;;;;;;;14.38;11.90;;;;;;;;;;510701;28;1421;-71
2024/01/30 00:41:27;;;;;;;14.30;11.63;;;;;;;;;;510952;29;1051;-71
2024/01/30 00:41:42;;;;;;;14.53;11.70;;;;;;;;;;510734;29;1229;-71
2024/01/30 00:41:58;;;;;;;15.45;12.38;;;;;;;;;;510233;28;1188;-71
2024/01/30 00:42:13;;;;;;;15.30;12.57;;;;;;;;;;511071;29;1019;-71
2024/01/30 00:42:29;;;;;;;14.43;11.63;;;;;;;;;;511241;28;1246;-71
2024/01/30 00:42:45;;;;;;;14.30;11.27;;;;;;;;;;513338;28;840;-71
2024/01/30 00:43:00;;;;;;;14.10;11.52;;;;;;;;;;514951;28;1231;-72
2024/01/30 00:43:16;;;;;;;13.37;11.77;;;;;;;;;;514874;28;1112;-71
2024/01/30 00:43:31;;;;;;;13.93;11.97;;;;;;;;;;517343;28;1649;-73
2024/01/30 00:43:46;;;;;;;13.38;11.65;;;;;;;;;;516861;28;1181;-71
2024/01/30 00:44:02;;;;;;;12.90;11.57;;;;;;;;;;519314;28;817;-71
2024/01/30 00:44:18;;;;;;;13.38;11.80;;;;;;;;;;518096;28;1257;-72
2024/01/30 00:44:37;;;;;;;13.90;12.10;;;;;;;;;;517085;28;945;-71
2024/01/30 00:44:52;;;;;;;14.40;12.07;;;;;;;;;;517139;28;1041;-71
2024/01/30 00:45:14;;;;;;;13.90;11.77;;;;;;;;;;516904;28;1082;-72
2024/01/30 00:45:29;;;;;;;13.93;11.82;;;;;;;;;;516509;28;1925;-71
2024/01/30 00:45:45;;;;;;;14.77;12.13;;;;;;;;;;516999;28;855;-71
2024/01/30 00:46:00;;;;;;;14.27;12.07;;;;;;;;;;516917;28;1093;-72
2024/01/30 00:46:15;;;;;;;14.90;11.70;;;;;;;;;;517064;28;1456;-71
2024/01/30 00:46:32;;;;;;;15.00;11.47;;;;;;;;;;517167;28;915;-72
2024/01/30 00:46:47;;;;;;;13.88;11.43;;;;;;;;;;516923;28;1090;-71
2024/01/30 00:47:03;;;;;;;13.53;11.47;;;;;;;;;;516559;28;1167;-72
2024/01/30 00:47:18;;;;;;;13.33;11.50;;;;;;;;;;516789;28;1369;-71
2024/01/30 00:47:33;;;;;;;13.20;11.35;;;;;;;;;;515103;28;1398;-72
2024/01/30 00:47:48;;;;;;;12.60;11.10;;;;;;;;;;514912;28;1630;-72
2024/01/30 00:48:04;;;;;;;14.10;11.73;;;;;;;;;;514516;28;1974;-72
2024/01/30 00:48:20;;;;;;;15.23;12.63;;;;;;;;;;516977;28;1835;-72
2024/01/30 00:48:35;;;;;;;14.80;12.57;;;;;;;;;;516958;28;1169;-71
2024/01/30 00:48:50;;;;;;;15.00;12.00;;;;;;;;;;516415;28;1120;-72
2024/01/30 00:49:05;;;;;;;13.70;11.37;;;;;;;;;;516769;28;1282;-72
2024/01/30 00:49:22;;;;;;;12.77;11.33;;;;;;;;;;517101;28;1906;-72
2024/01/30 00:49:37;;;;;;;13.70;11.93;;;;;;;;;;517147;28;926;-72
2024/01/30 00:49:53;;;;;;;14.37;12.03;;;;;;;;;;517102;28;1252;-71
2024/01/30 00:50:08;;;;;;;14.13;12.20;;;;;;;;;;514914;28;1299;-72
2024/01/30 00:50:24;;;;;;;15.23;12.35;;;;;;;;;;514370;28;1195;-72
2024/01/30 00:50:39;;;;;;;14.88;12.10;;;;;;;;;;514985;28;948;-72
2024/01/30 00:50:55;;;;;;;14.17;12.10;;;;;;;;;;513728;28;1975;-72
2024/01/30 00:51:10;;;;;;;16.55;12.65;;;;;;;;;;512600;28;1761;-72
2024/01/30 00:51:25;;;;;;;15.90;12.60;;;;;;;;;;510635;28;1983;-72
2024/01/30 00:51:41;;;;;;;14.33;12.33;;;;;;;;;;510731;29;1293;-72
2024/01/30 00:51:56;;;;;;;14.53;11.83;;;;;;;;;;510401;28;1292;-73
2024/01/30 00:52:11;;;;;;;14.45;11.75;;;;;;;;;;513250;28;1034;-72
2024/01/30 00:52:27;;;;;;;14.65;12.20;;;;;;;;;;515133;28;1179;-72
2024/01/30 00:52:44;;;;;;;14.33;12.10;;;;;;;;;;515020;28;1003;-72
2024/01/30 00:53:00;;;;;;;15.13;11.95;;;;;;;;;;513216;28;1316;-72
2024/01/30 00:53:15;;;;;;;15.27;12.27;;;;;;;;;;513373;28;1133;-74
2024/01/30 00:53:30;;;;;;;14.63;12.50;;;;;;;;;;513088;28;1326;-72
2024/01/30 00:53:45;;;;;;;14.30;12.17;;;;;;;;;;512932;28;1109;-71
2024/01/30 00:54:01;;;;;;;14.85;11.90;;;;;;;;;;510967;28;1319;-72
2024/01/30 00:54:16;;;;;;;14.63;11.93;;;;;;;;;;511017;28;1309;-71
2024/01/30 00:54:31;;;;;;;14.07;11.83;;;;;;;;;;511106;29;1163;-72
2024/01/30 00:54:48;;;;;;;13.93;11.67;;;;;;;;;;510979;28;1188;-71
2024/01/30 00:55:03;;;;;;;13.95;11.65;;;;;;;;;;513064;28;1409;-71
2024/01/30 00:55:19;;;;;;;14.88;12.05;;;;;;;;;;514951;28;1271;-72
2024/01/30 00:55:35;;;;;;;14.47;12.07;;;;;;;;;;517229;28;998;-71
2024/01/30 00:55:50;;;;;;;13.85;11.65;;;;;;;;;;517203;28;1160;-72
2024/01/30 00:56:06;;;;;;;13.30;11.50;;;;;;;;;;516591;28;1219;-72
2024/01/30 00:56:21;;;;;;;12.98;11.15;;;;;;;;;;516805;28;1872;-72
2024/01/30 00:56:36;;;;;;;13.20;11.40;;;;;;;;;;518002;28;1795;-72
2024/01/30 00:56:52;;;;;;;13.67;11.53;;;;;;;;;;516322;28;1490;-71
2024/01/30 00:57:07;;;;;;;14.15;11.65;;;;;;;;;;516811;28;1270;-72
2024/01/30 00:57:22;;;;;;;14.50;12.00;;;;;;;;;;516949;28;1176;-72
2024/01/30 00:57:38;;;;;;;14.35;12.05;;;;;;;;;;517198;28;1535;-72
2024/01/30 00:57:53;;;;;;;13.80;11.80;;;;;;;;;;516795;28;993;-72
2024/01/30 00:58:09;;;;;;;14.25;11.35;;;;;;;;;;516921;28;1215;-72
2024/01/30 00:58:24;;;;;;;15.30;11.33;;;;;;;;;;515014;28;1427;-72
2024/01/30 00:58:40;;;;;;;14.25;11.38;;;;;;;;;;514991;28;1048;-72
2024/01/30 00:58:55;;;;;;;12.27;10.87;;;;;;;;;;515033;28;1081;-71
2024/01/30 00:59:11;;;;;;;12.10;10.50;;;;;;;;;;515103;28;1242;-71
2024/01/30 00:59:26;;;;;;;11.83;10.40;;;;;;;;;;517190;28;997;-71
2024/01/30 00:59:42;;;;;;;13.40;11.27;;;;;;;;;;514766;28;1254;-72
2024/01/30 00:59:57;;;;;;;14.17;11.70;;;;;;;;;;513928;28;1770;-72
2024/01/30 01:00:15;;;;;;;13.57;11.40;;;;;;;;;;514733;28;1219;-71
2024/01/30 01:00:32;;;;;;;13.48;11.57;;;;;;;;;;514998;28;1359;-71
2024/01/30 01:00:47;;;;;;;13.25;11.20;;;;;;;;;;515068;28;1104;-71
2024/01/30 01:01:03;;;;;;;15.23;11.87;;;;;;;;;;514362;28;1173;-72
2024/01/30 01:01:18;;;;;;;15.53;12.00;;;;;;;;;;512706;28;1250;-72
2024/01/30 01:01:34;;;;;;;15.00;11.68;;;;;;;;;;515699;28;1389;-72
2024/01/30 01:01:49;;;;;;;14.97;11.70;;;;;;;;;;516044;28;1155;-71
2024/01/30 01:02:04;;;;;;;14.27;11.40;;;;;;;;;;517004;28;1050;-72
2024/01/30 01:02:19;;;;;;;15.00;11.40;;;;;;;;;;516748;28;1255;-72
2024/01/30 01:02:35;;;;;;;14.93;11.20;;;;;;;;;;516848;28;1207;-72
2024/01/30 01:02:50;;;;;;;12.85;10.85;;;;;;;;;;517065;28;1124;-72
2024/01/30 01:03:06;;;;;;;12.73;11.17;;;;;;;;;;517101;28;1154;-71
2024/01/30 01:03:21;;;;;;;13.27;11.35;;;;;;;;;;516927;28;958;-72
2024/01/30 01:03:37;;;;;;;12.93;11.20;;;;;;;;;;514985;28;1202;-72
2024/01/30 01:03:52;;;;;;;12.97;11.27;;;;;;;;;;514485;28;1228;-71
2024/01/30 01:04:07;;;;;;;13.32;11.50;;;;;;;;;;515122;28;989;-72
2024/01/30 01:04:22;;;;;;;13.27;11.30;;;;;;;;;;515318;28;923;-72
2024/01/30 01:04:38;;;;;;;14.00;11.10;;;;;;;;;;515787;28;1848;-72
2024/01/30 01:04:53;;;;;;;14.37;11.27;;;;;;;;;;516669;28;1087;-72
2024/01/30 01:05:09;;;;;;;14.52;11.50;;;;;;;;;;516578;28;1218;-72
2024/01/30 01:05:24;;;;;;;14.40;11.50;;;;;;;;;;512727;28;1218;-72
2024/01/30 01:05:40;;;;;;;14.00;11.57;;;;;;;;;;511020;28;1084;-72
2024/01/30 01:05:55;;;;;;;13.77;11.67;;;;;;;;;;511921;28;1320;-72
2024/01/30 01:06:10;;;;;;;14.30;11.73;;;;;;;;;;513063;28;899;-72
2024/01/30 01:06:26;;;;;;;14.53;11.53;;;;;;;;;;513363;28;864;-72
2024/01/30 01:06:43;;;;;;;13.13;11.20;;;;;;;;;;512471;28;1366;-72
2024/01/30 01:06:59;;;;;;;12.73;10.95;;;;;;;;;;508386;28;2080;-72
2024/01/30 01:07:14;;;;;;;13.53;11.07;;;;;;;;;;510982;28;1876;-72
2024/01/30 01:07:29;;;;;;;13.05;11.18;;;;;;;;;;511496;28;1880;-71
2024/01/30 01:07:47;;;;;;;12.63;11.20;;;;;;;;;;510768;28;1385;-71
2024/01/30 01:08:02;;;;;;;14.32;11.55;;;;;;;;;;511173;29;994;-72
2024/01/30 01:08:18;;;;;;;14.57;11.50;;;;;;;;;;511047;29;804;-72
2024/01/30 01:08:33;;;;;;;13.60;11.02;;;;;;;;;;511591;28;1267;-72
2024/01/30 01:08:49;;;;;;;12.67;10.77;;;;;;;;;;512667;28;1058;-71
2024/01/30 01:09:04;;;;;;;12.67;10.80;;;;;;;;;;513015;28;1295;-72
2024/01/30 01:09:19;;;;;;;13.23;11.20;;;;;;;;;;511359;28;1919;-72
2024/01/30 01:09:34;;;;;;;13.23;11.13;;;;;;;;;;513400;28;1201;-72
2024/01/30 01:09:50;;;;;;;13.45;11.05;;;;;;;;;;514881;28;1076;-72
2024/01/30 01:10:06;;;;;;;13.90;11.00;;;;;;;;;;514764;28;1334;-72
2024/01/30 01:10:22;;;;;;;13.32;11.13;;;;;;;;;;513168;28;1318;-72
2024/01/30 01:10:37;;;;;;;12.43;11.05;;;;;;;;;;514974;28;1295;-72
2024/01/30 01:10:53;;;;;;;12.60;10.90;;;;;;;;;;514583;28;1363;-71
2024/01/30 01:11:09;;;;;;;13.00;11.27;;;;;;;;;;515101;28;1190;-72
2024/01/30 01:11:24;;;;;;;13.20;11.10;;;;;;;;;;514522;28;1739;-72
2024/01/30 01:11:40;;;;;;;12.77;10.87;;;;;;;;;;514898;28;1026;-72
2024/01/30 01:11:55;;;;;;;13.07;10.95;;;;;;;;;;516318;28;1635;-71
2024/01/30 01:12:10;;;;;;;13.53;11.20;;;;;;;;;;516556;28;1407;-72
2024/01/30 01:12:25;;;;;;;13.27;11.30;;;;;;;;;;514825;28;1201;-72
2024/01/30 01:12:41;;;;;;;13.27;10.97;;;;;;;;;;512651;28;1276;-72
2024/01/30 01:12:56;;;;;;;13.48;10.68;;;;;;;;;;511328;28;1191;-72
2024/01/30 01:13:11;;;;;;;13.17;10.80;;;;;;;;;;509107;29;1655;-71
2024/01/30 01:13:26;;;;;;;13.23;11.00;;;;;;;;;;508822;29;1253;-72
2024/01/30 01:13:42;;;;;;;13.93;11.03;;;;;;;;;;510755;28;1417;-72
2024/01/30 01:13:57;;;;;;;14.45;11.35;;;;;;;;;;510898;28;1113;-72
2024/01/30 01:14:12;;;;;;;13.90;11.40;;;;;;;;;;508099;29;1821;-72
2024/01/30 01:14:28;;;;;;;13.03;10.93;;;;;;;;;;509207;29;1052;-72
2024/01/30 01:14:43;;;;;;;13.80;10.93;;;;;;;;;;512334;28;1411;-72
2024/01/30 01:14:58;;;;;;;14.60;11.20;;;;;;;;;;512833;28;1377;-72
2024/01/30 01:15:13;;;;;;;13.90;10.97;;;;;;;;;;512771;28;1105;-72
2024/01/30 01:15:29;;;;;;;12.70;10.75;;;;;;;;;;511299;28;1455;-72
2024/01/30 01:15:44;;;;;;;12.93;11.13;;;;;;;;;;513067;28;1034;-72
2024/01/30 01:15:59;;;;;;;13.40;11.00;;;;;;;;;;512841;28;1070;-72
2024/01/30 01:16:15;;;;;;;13.20;10.50;;;;;;;;;;514844;28;1343;-72
2024/01/30 01:16:30;;;;;;;12.73;10.60;;;;;;;;;;512986;28;1132;-72
2024/01/30 01:16:45;;;;;;;12.83;10.93;;;;;;;;;;512810;28;951;-72
2024/01/30 01:17:01;;;;;;;13.27;11.07;;;;;;;;;;514169;28;1045;-72
2024/01/30 01:17:18;;;;;;;13.52;11.10;;;;;;;;;;512839;28;1207;-72
2024/01/30 01:17:33;;;;;;;14.02;11.25;;;;;;;;;;514837;28;1442;-72
2024/01/30 01:17:48;;;;;;;14.67;11.33;;;;;;;;;;515269;28;1492;-72
2024/01/30 01:18:04;;;;;;;14.32;11.43;;;;;;;;;;514915;28;1213;-72
2024/01/30 01:18:19;;;;;;;12.97;11.13;;;;;;;;;;515512;28;796;-72
2024/01/30 01:18:34;;;;;;;13.50;11.20;;;;;;;;;;516566;28;1143;-71
2024/01/30 01:18:50;;;;;;;14.83;11.50;;;;;;;;;;516313;28;1286;-72
2024/01/30 01:19:05;;;;;;;13.97;11.13;;;;;;;;;;514751;28;1304;-72
2024/01/30 01:19:22;;;;;;;13.53;11.00;;;;;;;;;;514796;28;1271;-72
2024/01/30 01:19:37;;;;;;;13.52;11.25;;;;;;;;;;513495;28;828;-72
2024/01/30 01:19:52;;;;;;;13.70;11.32;;;;;;;;;;513033;28;1203;-72
2024/01/30 01:20:08;;;;;;;13.33;11.00;;;;;;;;;;512939;28;1267;-72
2024/01/30 01:20:23;;;;;;;13.07;11.10;;;;;;;;;;512674;28;1273;-72
2024/01/30 01:20:39;;;;;;;13.33;11.20;;;;;;;;;;512851;28;1464;-72
2024/01/30 01:20:54;;;;;;;13.67;11.23;;;;;;;;;;512843;28;1350;-71
2024/01/30 01:21:09;;;;;;;13.57;11.23;;;;;;;;;;513626;28;1104;-71
2024/01/30 01:21:24;;;;;;;13.88;11.50;;;;;;;;;;511240;28;1273;-72
2024/01/30 01:21:40;;;;;;;13.60;11.60;;;;;;;;;;513798;28;1391;-71
2024/01/30 01:21:55;;;;;;;12.97;11.57;;;;;;;;;;514362;28;1029;-72
2024/01/30 01:22:11;;;;;;;12.80;11.27;;;;;;;;;;513026;28;1288;-72
2024/01/30 01:22:26;;;;;;;14.10;11.00;;;;;;;;;;512978;28;1368;-72
2024/01/30 01:22:41;;;;;;;14.55;11.35;;;;;;;;;;512052;28;1786;-71
2024/01/30 01:22:57;;;;;;;13.23;11.43;;;;;;;;;;510827;28;1298;-72
2024/01/30 01:23:12;;;;;;;12.93;11.10;;;;;;;;;;512943;28;1380;-72
2024/01/30 01:23:28;;;;;;;13.07;10.85;;;;;;;;;;508977;29;1389;-71
2024/01/30 01:23:43;;;;;;;13.27;10.93;;;;;;;;;;510777;29;1261;-72
2024/01/30 01:23:58;;;;;;;13.00;10.93;;;;;;;;;;510870;28;1323;-72
2024/01/30 01:24:14;;;;;;;12.20;10.70;;;;;;;;;;512552;28;1387;-72
2024/01/30 01:24:32;;;;;;;11.90;10.63;;;;;;;;;;513047;28;824;-72
2024/01/30 01:24:47;;;;;;;12.98;10.88;;;;;;;;;;512896;28;930;-72
2024/01/30 01:25:03;;;;;;;13.40;11.10;;;;;;;;;;514579;28;1092;-72
2024/01/30 01:25:18;;;;;;;13.68;11.00;;;;;;;;;;515109;28;769;-71
2024/01/30 01:25:34;;;;;;;13.63;11.10;;;;;;;;;;513902;28;1143;-71
2024/01/30 01:25:49;;;;;;;13.02;11.23;;;;;;;;;;515070;28;1006;-72
2024/01/30 01:26:05;;;;;;;12.40;10.93;;;;;;;;;;514688;28;1210;-71
2024/01/30 01:26:21;;;;;;;13.57;11.45;;;;;;;;;;514897;28;1179;-72
2024/01/30 01:26:36;;;;;;;14.00;11.50;;;;;;;;;;515022;28;898;-71
2024/01/30 01:26:52;;;;;;;12.47;11.10;;;;;;;;;;514469;28;990;-72
2024/01/30 01:27:07;;;;;;;12.80;11.38;;;;;;;;;;514956;28;1095;-71
2024/01/30 01:27:23;;;;;;;14.27;11.67;;;;;;;;;;515494;28;803;-72
2024/01/30 01:27:40;;;;;;;14.15;11.57;;;;;;;;;;515554;28;1619;-72
2024/01/30 01:27:56;;;;;;;13.27;11.15;;;;;;;;;;517046;28;966;-72
2024/01/30 01:28:11;;;;;;;14.07;11.13;;;;;;;;;;517128;28;831;-72
2024/01/30 01:28:27;;;;;;;13.23;11.20;;;;;;;;;;516616;28;1281;-72
2024/01/30 01:28:42;;;;;;;12.90;11.47;;;;;;;;;;516530;28;1091;-72
2024/01/30 01:28:57;;;;;;;14.52;11.88;;;;;;;;;;516587;28;1152;-71
2024/01/30 01:29:12;;;;;;;14.10;11.50;;;;;;;;;;516813;28;2006;-72
2024/01/30 01:29:28;;;;;;;14.40;11.20;;;;;;;;;;518725;28;1278;-71
2024/01/30 01:29:45;;;;;;;15.05;11.38;;;;;;;;;;516895;28;1287;-72
2024/01/30 01:30:01;;;;;;;14.48;11.43;;;;;;;;;;515003;28;1033;-72
2024/01/30 01:30:21;;;;;;;15.23;11.65;;;;;;;;;;515087;28;1282;-72
2024/01/30 01:30:36;;;;;;;14.90;11.82;;;;;;;;;;515027;28;888;-72
2024/01/30 01:30:51;;;;;;;14.37;11.70;;;;;;;;;;512430;28;1317;-72
2024/01/30 01:31:07;;;;;;;14.37;11.63;;;;;;;;;;513142;28;1255;-72
2024/01/30 01:31:24;;;;;;;14.27;11.65;;;;;;;;;;513827;28;1043;-72
2024/01/30 01:31:43;;;;;;;14.70;11.77;;;;;;;;;;516339;28;863;-71
2024/01/30 01:31:58;;;;;;;14.70;11.98;;;;;;;;;;516484;28;1088;-72
2024/01/30 01:32:14;;;;;;;13.87;11.53;;;;;;;;;;514877;28;1135;-72
2024/01/30 01:32:29;;;;;;;13.48;11.50;;;;;;;;;;517187;28;1113;-72
2024/01/30 01:32:50;;;;;;;13.70;11.73;;;;;;;;;;515966;28;1529;-72
2024/01/30 01:33:06;;;;;;;13.35;11.85;;;;;;;;;;516976;28;1247;-72
2024/01/30 01:33:21;;;;;;;13.40;11.48;;;;;;;;;;517159;28;899;-72
2024/01/30 01:33:37;;;;;;;12.85;10.82;;;;;;;;;;514599;28;1210;-72
2024/01/30 01:33:53;;;;;;;12.70;10.83;;;;;;;;;;514913;28;1140;-72
2024/01/30 01:34:12;;;;;;;12.77;11.15;;;;;;;;;;515048;28;1081;-72